Time;durP1;ratioP1;P1;durP2;ratioP2;P2;SDS_P1;SDS_P2;PMS_P1;PMS_P2;Temp;Humidity;BMP_temperature;BMP_pressure;BME280_temperature;BME280_humidity;BME280_pressure;Samples;Min_cycle;Max_cycle;Signal;HPM_P1;HPM_P2
2023/05/18 00:02:03;;;;;;;11.40;2.13;;;8.20;99.90;;;;;;5125223;27;20046;-81
2023/05/18 00:04:33;;;;;;;10.45;2.08;;;8.20;99.90;;;;;;5130036;27;20438;-80
2023/05/18 00:07:02;;;;;;;9.57;2.15;;;8.30;99.90;;;;;;5130118;27;20095;-80
2023/05/18 00:09:30;;;;;;;10.32;1.90;;;8.30;99.90;;;;;;5111875;27;20058;-80
2023/05/18 00:11:56;;;;;;;9.65;2.08;;;8.30;99.90;;;;;;5145536;27;20027;-80
2023/05/18 00:14:22;;;;;;;13.43;2.05;;;8.30;99.90;;;;;;5128404;27;20046;-80
2023/05/18 00:16:48;;;;;;;10.40;1.85;;;8.30;99.90;;;;;;5126994;27;20053;-80
2023/05/18 00:19:14;;;;;;;14.52;2.55;;;8.30;99.90;;;;;;5148701;27;20053;-80
2023/05/18 00:21:41;;;;;;;12.00;1.95;;;8.30;99.90;;;;;;5130423;27;20126;-80
2023/05/18 00:24:09;;;;;;;8.77;2.17;;;8.30;99.90;;;;;;5131629;27;20092;-80
2023/05/18 00:26:37;;;;;;;12.38;2.28;;;8.30;99.90;;;;;;5126562;27;20035;-80
2023/05/18 00:29:02;;;;;;;10.40;2.08;;;8.20;99.90;;;;;;5140475;27;20050;-79
2023/05/18 00:31:28;;;;;;;12.25;2.22;;;8.20;99.90;;;;;;5121826;27;20049;-79
2023/05/18 00:33:54;;;;;;;13.85;3.05;;;8.20;99.90;;;;;;5123715;27;20125;-80
2023/05/18 00:36:20;;;;;;;10.90;2.17;;;8.40;99.90;;;;;;5126521;27;20104;-79
2023/05/18 00:38:45;;;;;;;11.98;2.80;;;8.30;99.90;;;;;;5123348;27;20039;-80
2023/05/18 00:41:11;;;;;;;15.68;2.80;;;8.10;99.90;;;;;;5127857;27;20115;-80
2023/05/18 00:43:40;;;;;;;7.85;2.05;;;8.60;99.90;;;;;;5129993;27;20039;-79
2023/05/18 00:46:05;;;;;;;10.32;2.33;;;8.10;99.90;;;;;;5129137;27;20413;-80
2023/05/18 00:48:31;;;;;;;9.93;2.15;;;8.10;99.90;;;;;;5125671;27;20046;-80
2023/05/18 00:50:57;;;;;;;14.40;2.78;;;8.10;99.90;;;;;;5126863;27;20061;-80
2023/05/18 00:53:23;;;;;;;10.63;1.90;;;8.00;99.90;;;;;;5129534;27;20447;-80
2023/05/18 00:55:48;;;;;;;14.88;2.30;;;8.00;99.90;;;;;;5113126;27;20043;-79
2023/05/18 00:58:15;;;;;;;10.27;2.33;;;8.00;99.90;;;;;;5130697;27;20130;-80
2023/05/18 01:00:41;;;;;;;9.75;1.95;;;8.20;99.90;;;;;;5128036;27;20095;-80
2023/05/18 01:03:09;;;;;;;9.57;1.85;;;8.10;99.90;;;;;;5127366;27;20047;-79
2023/05/18 01:05:35;;;;;;;16.80;2.40;;;8.20;99.90;;;;;;5123231;27;20047;-80
2023/05/18 01:08:02;;;;;;;10.32;1.92;;;8.00;99.90;;;;;;5138788;27;20035;-80
2023/05/18 01:10:31;;;;;;;20.58;3.17;;;8.00;99.90;;;;;;5129823;27;20048;-80
2023/05/18 01:13:04;;;;;;;10.48;1.98;;;8.00;99.90;;;;;;5149255;27;20039;-80
2023/05/18 01:15:34;;;;;;;10.60;1.75;;;8.00;99.90;;;;;;5128157;27;20074;-79
2023/05/18 01:18:13;;;;;;;8.95;2.10;;;8.10;99.90;;;;;;5149093;27;20050;-81
2023/05/18 01:20:48;;;;;;;13.48;2.20;;;8.10;99.90;;;;;;5117550;27;20042;-79
2023/05/18 01:23:34;;;;;;;10.85;1.88;;;8.10;99.90;;;;;;5129256;27;20043;-80
2023/05/18 01:26:14;;;;;;;12.25;1.83;;;8.10;99.90;;;;;;5130264;27;20058;-80
2023/05/18 01:28:42;;;;;;;9.68;2.13;;;8.20;99.90;;;;;;5115844;27;20077;-80
2023/05/18 01:31:09;;;;;;;10.63;2.17;;;8.20;99.90;;;;;;5129185;27;20413;-80
2023/05/18 01:33:35;;;;;;;9.13;1.98;;;8.10;99.90;;;;;;5148318;27;20058;-80
2023/05/18 01:36:00;;;;;;;8.93;2.20;;;8.20;99.90;;;;;;5129181;27;20078;-80
2023/05/18 01:38:27;;;;;;;9.55;1.80;;;8.10;99.90;;;;;;5129703;27;20045;-80
2023/05/18 01:40:54;;;;;;;12.63;2.05;;;8.10;99.90;;;;;;5129812;27;20039;-80
2023/05/18 01:43:26;;;;;;;11.77;2.13;;;8.10;99.90;;;;;;5115438;27;20050;-81
2023/05/18 01:45:56;;;;;;;7.50;1.63;;;8.20;99.90;;;;;;5126754;27;20491;-80
2023/05/18 01:48:25;;;;;;;12.73;2.30;;;8.20;99.90;;;;;;5125861;28;20051;-81
2023/05/18 01:50:55;;;;;;;9.60;1.83;;;8.20;99.90;;;;;;5121487;27;20039;-80
2023/05/18 01:53:26;;;;;;;9.63;1.90;;;8.10;99.90;;;;;;5108643;28;20575;-80
2023/05/18 01:55:53;;;;;;;15.63;2.97;;;8.50;99.90;;;;;;5126668;27;20087;-81
2023/05/18 01:58:20;;;;;;;11.35;1.75;;;8.10;99.90;;;;;;5128636;27;20092;-81
2023/05/18 02:00:46;;;;;;;17.23;2.35;;;8.60;99.90;;;;;;5101707;27;20077;-80
2023/05/18 02:03:13;;;;;;;12.27;1.98;;;8.20;99.90;;;;;;5141269;27;20043;-80
2023/05/18 02:05:39;;;;;;;10.60;1.80;;;8.20;99.90;;;;;;5149533;27;20072;-80
2023/05/18 02:08:05;;;;;;;11.77;2.33;;;8.30;99.90;;;;;;5134304;27;20069;-80
2023/05/18 02:10:31;;;;;;;10.77;2.33;;;8.20;99.90;;;;;;5131981;27;20039;-80
2023/05/18 02:12:56;;;;;;;9.07;2.20;;;8.50;99.90;;;;;;5133880;27;20069;-81
2023/05/18 02:15:22;;;;;;;7.95;1.80;;;8.20;99.90;;;;;;5132530;27;20058;-81
2023/05/18 02:17:48;;;;;;;10.80;2.53;;;8.40;99.90;;;;;;5132480;27;20056;-80
2023/05/18 02:20:17;;;;;;;11.30;2.17;;;8.20;99.90;;;;;;5133116;27;20049;-80
2023/05/18 02:22:43;;;;;;;10.35;2.28;;;8.20;99.90;;;;;;5129405;27;20133;-80
2023/05/18 02:25:09;;;;;;;9.43;2.00;;;8.20;99.90;;;;;;5130305;27;20135;-80
2023/05/18 02:27:35;;;;;;;10.82;2.30;;;8.20;99.90;;;;;;5129515;27;20096;-80
2023/05/18 02:30:04;;;;;;;11.45;2.25;;;8.30;99.90;;;;;;5109928;27;20039;-80
2023/05/18 02:32:31;;;;;;;8.80;2.15;;;8.20;99.90;;;;;;5111213;27;20349;-80
2023/05/18 02:35:01;;;;;;;11.73;2.05;;;8.40;99.90;;;;;;5105469;27;20092;-80
2023/05/18 02:37:27;;;;;;;10.68;2.25;;;8.70;99.90;;;;;;5120901;27;20054;-81
2023/05/18 02:39:52;;;;;;;10.50;2.20;;;8.20;99.90;;;;;;5131261;27;20405;-81
2023/05/18 02:42:18;;;;;;;13.32;2.10;;;8.20;99.90;;;;;;5132694;27;20053;-81
2023/05/18 02:44:44;;;;;;;13.27;2.42;;;8.20;99.90;;;;;;5118277;27;20506;-80
2023/05/18 02:47:09;;;;;;;13.48;2.22;;;8.20;99.90;;;;;;5150483;27;20046;-80
2023/05/18 02:49:35;;;;;;;11.00;2.00;;;8.30;99.90;;;;;;5118032;27;20046;-81
2023/05/18 02:52:01;;;;;;;15.40;2.33;;;8.20;99.90;;;;;;5133291;27;20067;-81
2023/05/18 02:54:26;;;;;;;13.43;2.28;;;8.30;99.90;;;;;;5150454;27;20474;-80
2023/05/18 02:56:55;;;;;;;8.77;1.83;;;8.20;99.90;;;;;;5115572;27;20130;-81
2023/05/18 02:59:21;;;;;;;10.93;2.33;;;8.20;99.90;;;;;;5149795;27;20042;-81
2023/05/18 03:01:47;;;;;;;13.88;2.15;;;8.20;99.90;;;;;;5114580;27;20057;-81
2023/05/18 03:04:12;;;;;;;10.73;2.33;;;8.20;99.90;;;;;;5132468;27;20050;-80
2023/05/18 03:06:39;;;;;;;14.77;2.20;;;8.20;99.90;;;;;;5131417;27;20070;-81
2023/05/18 03:09:04;;;;;;;10.35;2.10;;;8.40;99.90;;;;;;5131952;27;20573;-81
2023/05/18 03:11:30;;;;;;;10.55;2.97;;;8.10;99.90;;;;;;5110486;27;20078;-81
2023/05/18 03:13:56;;;;;;;9.02;1.90;;;8.40;99.90;;;;;;5127135;27;20037;-81
2023/05/18 03:16:27;;;;;;;8.85;2.10;;;8.10;99.90;;;;;;5137102;27;20055;-81
2023/05/18 03:18:53;;;;;;;18.02;2.38;;;8.20;99.90;;;;;;5113915;27;20050;-80
2023/05/18 03:21:20;;;;;;;8.77;2.25;;;8.10;99.90;;;;;;5130219;27;20046;-80
2023/05/18 03:23:46;;;;;;;16.23;2.75;;;8.10;99.90;;;;;;5115064;27;20042;-80
2023/05/18 03:26:12;;;;;;;11.20;2.50;;;8.10;99.90;;;;;;5128334;27;20050;-80
2023/05/18 03:28:38;;;;;;;8.27;2.40;;;8.10;99.90;;;;;;5114404;27;20088;-80
2023/05/18 03:31:04;;;;;;;16.60;2.42;;;8.10;99.90;;;;;;5131089;27;20045;-80
2023/05/18 03:33:30;;;;;;;10.70;2.42;;;8.10;99.90;;;;;;5114556;27;20042;-80
2023/05/18 03:35:56;;;;;;;12.00;2.08;;;8.20;99.90;;;;;;5145815;27;20075;-80
2023/05/18 03:38:21;;;;;;;10.55;2.13;;;8.10;99.90;;;;;;5127801;27;20047;-80
2023/05/18 03:40:47;;;;;;;12.57;2.38;;;8.10;99.90;;;;;;5143259;27;20053;-81
2023/05/18 03:43:13;;;;;;;8.73;2.30;;;8.10;99.90;;;;;;5110998;27;20530;-81
2023/05/18 03:45:38;;;;;;;12.70;2.35;;;8.10;99.90;;;;;;5110574;27;20151;-81
2023/05/18 03:48:05;;;;;;;14.48;2.83;;;8.00;99.90;;;;;;5112431;27;20047;-81
2023/05/18 03:50:31;;;;;;;8.80;2.28;;;8.10;99.90;;;;;;5109988;27;20485;-81
2023/05/18 03:52:57;;;;;;;10.95;2.65;;;8.10;99.90;;;;;;5127814;27;20521;-81
2023/05/18 03:55:22;;;;;;;15.65;2.35;;;8.10;99.90;;;;;;5123119;27;20051;-81
2023/05/18 03:57:48;;;;;;;9.23;2.40;;;8.10;99.90;;;;;;5149489;27;20378;-81
2023/05/18 04:00:14;;;;;;;11.45;2.60;;;8.10;99.90;;;;;;5127473;27;20043;-81
2023/05/18 04:02:41;;;;;;;10.38;3.17;;;8.10;99.90;;;;;;5108633;27;20462;-81
2023/05/18 04:05:07;;;;;;;8.55;2.05;;;8.10;99.90;;;;;;5124592;27;20050;-81
2023/05/18 04:07:33;;;;;;;11.23;2.60;;;8.10;99.90;;;;;;5127346;27;20131;-80
2023/05/18 04:09:59;;;;;;;10.75;2.60;;;8.10;99.90;;;;;;5103307;27;20466;-81
2023/05/18 04:12:24;;;;;;;10.38;2.17;;;8.30;99.90;;;;;;5130890;27;20034;-82
2023/05/18 04:14:50;;;;;;;9.82;2.47;;;8.10;99.90;;;;;;5150004;27;20354;-80
2023/05/18 04:17:17;;;;;;;11.57;2.13;;;8.20;99.90;;;;;;5108312;27;20047;-81
2023/05/18 04:19:43;;;;;;;7.50;1.88;;;8.20;99.90;;;;;;5120471;27;20051;-81
2023/05/18 04:22:08;;;;;;;15.23;2.45;;;8.20;99.90;;;;;;5148811;27;20042;-80
2023/05/18 04:24:34;;;;;;;9.13;2.00;;;8.20;99.90;;;;;;5126492;27;20359;-80
2023/05/18 04:27:01;;;;;;;10.27;2.35;;;8.20;99.90;;;;;;5131157;27;20190;-80
2023/05/18 04:29:27;;;;;;;14.25;3.10;;;8.50;99.90;;;;;;5126885;27;20047;-80
2023/05/18 04:31:58;;;;;;;11.95;2.40;;;8.30;99.90;;;;;;5108819;27;20490;-80
2023/05/18 04:34:25;;;;;;;9.20;1.90;;;8.30;99.90;;;;;;5138296;27;20184;-80
2023/05/18 04:36:53;;;;;;;13.10;2.70;;;8.30;99.90;;;;;;5127138;27;20035;-81
2023/05/18 04:39:19;;;;;;;8.02;2.00;;;8.40;99.90;;;;;;5142399;27;20483;-80
2023/05/18 04:41:45;;;;;;;10.30;1.85;;;8.20;99.90;;;;;;5130109;27;20042;-80
2023/05/18 04:44:12;;;;;;;11.30;2.22;;;8.50;99.90;;;;;;5129945;27;20043;-80
2023/05/18 04:46:39;;;;;;;10.57;2.55;;;8.50;99.90;;;;;;5128846;27;20185;-80
2023/05/18 04:49:05;;;;;;;10.07;2.22;;;8.50;99.90;;;;;;5113320;27;20504;-80
2023/05/18 04:51:33;;;;;;;9.90;2.00;;;8.60;99.90;;;;;;5130069;27;20054;-80
2023/05/18 04:54:00;;;;;;;10.82;2.38;;;8.60;99.90;;;;;;5147924;27;20039;-81
2023/05/18 04:56:25;;;;;;;7.07;1.70;;;8.60;99.90;;;;;;5130094;27;20073;-80
2023/05/18 04:58:51;;;;;;;13.57;2.17;;;8.60;99.90;;;;;;5129546;27;20045;-81
2023/05/18 05:01:17;;;;;;;13.93;2.30;;;8.60;99.90;;;;;;5126162;27;20043;-80
2023/05/18 05:03:43;;;;;;;12.35;2.53;;;8.70;99.90;;;;;;5107019;27;20378;-80
2023/05/18 05:06:10;;;;;;;11.80;2.75;;;8.70;99.90;;;;;;5111607;27;20046;-81
2023/05/18 05:08:36;;;;;;;12.25;2.13;;;8.70;99.90;;;;;;5113068;27;20058;-80
2023/05/18 05:11:03;;;;;;;6.63;1.70;;;8.70;99.90;;;;;;5130300;27;20405;-81
2023/05/18 05:13:28;;;;;;;10.52;1.83;;;8.70;99.90;;;;;;5129088;27;20039;-81
2023/05/18 05:15:54;;;;;;;11.88;1.98;;;8.70;99.90;;;;;;5128978;27;20099;-80
2023/05/18 05:18:20;;;;;;;9.98;2.25;;;8.70;99.90;;;;;;5112383;27;20054;-80
2023/05/18 05:20:45;;;;;;;8.50;2.08;;;8.70;99.90;;;;;;5126248;27;20051;-80
2023/05/18 05:23:11;;;;;;;7.65;1.90;;;8.90;99.90;;;;;;5138496;27;20439;-80
2023/05/18 05:25:37;;;;;;;13.98;2.28;;;8.80;99.90;;;;;;5129986;27;20382;-80
2023/05/18 05:28:03;;;;;;;13.07;2.03;;;8.80;99.90;;;;;;5128073;27;20047;-80
2023/05/18 05:30:29;;;;;;;8.95;1.92;;;8.80;99.90;;;;;;5129134;27;20125;-80
2023/05/18 05:32:54;;;;;;;13.40;2.30;;;8.90;99.90;;;;;;5129790;27;20050;-81
2023/05/18 05:35:20;;;;;;;8.60;1.92;;;8.90;99.90;;;;;;5128145;27;20446;-80
2023/05/18 05:37:46;;;;;;;8.95;1.90;;;8.90;99.90;;;;;;5148522;27;20034;-80
2023/05/18 05:40:12;;;;;;;12.02;2.15;;;9.00;99.90;;;;;;5112905;27;20383;-80
2023/05/18 05:42:37;;;;;;;11.45;2.55;;;9.00;99.90;;;;;;5147365;27;20367;-80
2023/05/18 05:45:03;;;;;;;11.35;2.20;;;9.10;99.90;;;;;;5126492;28;20039;-80
2023/05/18 05:47:29;;;;;;;14.00;2.70;;;9.10;99.90;;;;;;5102790;27;20297;-81
2023/05/18 05:49:55;;;;;;;12.27;2.20;;;9.30;99.90;;;;;;5129641;27;20046;-81
2023/05/18 05:52:22;;;;;;;10.27;2.25;;;9.30;99.90;;;;;;5126885;27;20039;-80
2023/05/18 05:54:48;;;;;;;9.05;2.00;;;9.40;99.90;;;;;;5148737;27;20034;-80
2023/05/18 05:57:14;;;;;;;10.23;2.50;;;9.50;99.90;;;;;;5099002;27;20051;-80
2023/05/18 05:59:39;;;;;;;13.63;3.00;;;9.60;99.90;;;;;;5125467;28;20054;-80
2023/05/18 06:02:06;;;;;;;13.70;2.30;;;9.60;99.90;;;;;;5142132;27;20047;-80
2023/05/18 06:04:31;;;;;;;11.00;2.17;;;9.90;99.90;;;;;;5125034;28;20126;-80
2023/05/18 06:06:57;;;;;;;8.75;2.05;;;9.80;99.90;;;;;;5124414;27;20129;-80
2023/05/18 06:09:23;;;;;;;9.70;2.22;;;9.90;99.90;;;;;;5125209;28;20055;-80
2023/05/18 06:11:49;;;;;;;12.38;2.83;;;10.00;99.90;;;;;;5122319;27;20043;-80
2023/05/18 06:14:14;;;;;;;8.98;2.20;;;10.00;99.90;;;;;;5093393;28;20039;-81
2023/05/18 06:16:40;;;;;;;13.90;2.90;;;10.30;99.90;;;;;;5111511;27;20092;-80
2023/05/18 06:19:07;;;;;;;10.18;2.08;;;10.10;99.90;;;;;;5126610;28;20240;-80
2023/05/18 06:21:33;;;;;;;13.07;2.63;;;10.10;99.90;;;;;;5122620;27;20842;-80
2023/05/18 06:24:00;;;;;;;12.93;2.40;;;10.20;99.90;;;;;;5136091;27;20027;-80
2023/05/18 06:26:26;;;;;;;11.05;2.15;;;10.20;99.90;;;;;;5127581;27;20039;-80
2023/05/18 06:28:51;;;;;;;8.77;1.90;;;10.30;99.90;;;;;;5148296;27;20217;-80
2023/05/18 06:31:17;;;;;;;15.70;2.78;;;10.30;99.90;;;;;;5127964;27;20129;-81
2023/05/18 06:33:43;;;;;;;12.30;2.47;;;10.40;99.90;;;;;;5126066;28;20039;-81
2023/05/18 06:36:09;;;;;;;11.88;2.28;;;10.50;99.90;;;;;;5142875;27;20054;-82
2023/05/18 06:38:35;;;;;;;14.57;2.85;;;10.60;99.90;;;;;;5128475;27;20043;-82
2023/05/18 06:41:00;;;;;;;11.15;2.42;;;10.70;99.90;;;;;;5128422;27;20141;-82
2023/05/18 06:43:27;;;;;;;10.55;1.85;;;10.80;99.90;;;;;;5125707;28;20042;-82
2023/05/18 06:45:54;;;;;;;12.43;2.65;;;10.80;99.90;;;;;;5118544;27;20142;-81
2023/05/18 06:48:22;;;;;;;7.32;1.80;;;10.90;99.90;;;;;;5126783;27;20047;-81
2023/05/18 06:50:48;;;;;;;13.43;1.85;;;11.00;99.90;;;;;;5132730;27;20042;-81
2023/05/18 06:53:14;;;;;;;10.70;2.33;;;11.10;99.90;;;;;;5131588;27;20458;-81
2023/05/18 06:55:39;;;;;;;11.23;2.35;;;11.20;99.90;;;;;;5115107;27;20051;-81
2023/05/18 06:58:05;;;;;;;11.23;2.13;;;11.30;99.90;;;;;;5129281;27;20042;-81
2023/05/18 07:00:31;;;;;;;12.50;1.80;;;11.40;99.90;;;;;;5144476;27;20046;-82
2023/05/18 07:02:57;;;;;;;6.68;2.33;;;11.50;99.90;;;;;;5132799;27;20609;-81
2023/05/18 07:05:23;;;;;;;8.65;1.88;;;11.50;99.90;;;;;;5131309;27;20641;-81
2023/05/18 07:07:49;;;;;;;7.70;2.50;;;11.50;99.90;;;;;;5150887;27;20038;-82
2023/05/18 07:10:15;;;;;;;13.27;2.05;;;11.60;99.90;;;;;;5114248;27;20090;-81
2023/05/18 07:12:40;;;;;;;11.50;2.20;;;11.60;99.90;;;;;;5130682;27;20043;-81
2023/05/18 07:15:07;;;;;;;10.70;1.80;;;11.60;99.90;;;;;;5150232;27;20207;-82
2023/05/18 07:17:32;;;;;;;10.07;2.30;;;11.50;99.90;;;;;;5130708;27;20435;-81
2023/05/18 07:19:58;;;;;;;11.20;2.00;;;11.40;99.90;;;;;;5129486;27;20112;-81
2023/05/18 07:22:24;;;;;;;9.77;1.75;;;11.40;99.90;;;;;;5114384;27;20042;-81
2023/05/18 07:24:49;;;;;;;8.45;1.90;;;11.40;99.90;;;;;;5131803;27;20168;-81
2023/05/18 07:27:15;;;;;;;9.07;1.52;;;11.40;99.90;;;;;;5131122;27;20061;-81
2023/05/18 07:29:41;;;;;;;13.52;2.25;;;11.30;99.90;;;;;;5131049;27;20046;-81
2023/05/18 07:32:06;;;;;;;7.63;1.75;;;11.30;99.90;;;;;;5131598;27;20436;-81
2023/05/18 07:34:32;;;;;;;10.95;2.00;;;11.40;99.90;;;;;;5126552;27;20665;-82
2023/05/18 07:36:58;;;;;;;10.00;1.70;;;11.40;99.90;;;;;;5129323;27;20121;-81
2023/05/18 07:39:27;;;;;;;12.43;2.03;;;11.60;99.90;;;;;;5126391;27;20047;-82
2023/05/18 07:41:54;;;;;;;6.88;1.75;;;11.50;99.90;;;;;;5149232;27;20397;-81
2023/05/18 07:44:19;;;;;;;10.50;2.10;;;11.70;99.90;;;;;;5129869;27;20482;-82
2023/05/18 07:46:45;;;;;;;16.10;2.15;;;11.80;99.90;;;;;;5130560;27;20046;-81
2023/05/18 07:49:11;;;;;;;12.30;1.85;;;11.90;99.90;;;;;;5128926;27;20508;-81
2023/05/18 07:51:36;;;;;;;9.50;1.90;;;12.00;99.90;;;;;;5144920;27;20054;-81
2023/05/18 07:54:04;;;;;;;12.32;1.80;;;11.90;99.90;;;;;;5135183;27;20824;-81
2023/05/18 07:56:30;;;;;;;13.88;1.88;;;12.10;99.90;;;;;;5115921;27;20525;-81
2023/05/18 07:58:56;;;;;;;9.02;1.90;;;12.10;99.90;;;;;;5116011;27;20047;-81
2023/05/18 08:01:26;;;;;;;10.23;2.45;;;12.20;99.90;;;;;;5132871;27;20050;-82
2023/05/18 08:03:52;;;;;;;10.30;1.90;;;12.20;99.90;;;;;;5115492;27;20062;-82
2023/05/18 08:06:18;;;;;;;9.48;1.98;;;12.30;99.90;;;;;;5132595;27;20395;-81
2023/05/18 08:08:44;;;;;;;9.95;1.85;;;12.40;99.90;;;;;;5115967;27;20050;-82
2023/05/18 08:11:10;;;;;;;9.40;1.90;;;12.40;99.90;;;;;;5117616;27;20051;-82
2023/05/18 08:13:35;;;;;;;9.57;2.10;;;12.50;99.90;;;;;;5116620;27;20070;-81
2023/05/18 08:16:01;;;;;;;9.80;1.52;;;12.60;99.90;;;;;;5133713;27;20054;-81
2023/05/18 08:18:27;;;;;;;7.82;1.75;;;12.60;99.90;;;;;;5125938;27;20035;-82
2023/05/18 08:20:52;;;;;;;10.13;1.70;;;12.70;99.90;;;;;;5123529;27;20526;-81
2023/05/18 08:23:19;;;;;;;12.00;1.77;;;12.80;99.90;;;;;;5121284;27;20198;-81
2023/05/18 08:25:44;;;;;;;8.18;1.65;;;13.00;99.90;;;;;;5121713;27;20035;-82
2023/05/18 08:28:10;;;;;;;14.55;2.47;;;13.10;99.90;;;;;;5114912;27;20389;-81
2023/05/18 08:30:36;;;;;;;9.90;1.70;;;13.20;99.90;;;;;;5112394;27;20104;-81
2023/05/18 08:33:03;;;;;;;12.15;2.63;;;13.20;99.90;;;;;;5124441;27;20553;-80
2023/05/18 08:35:29;;;;;;;10.55;2.00;;;13.40;99.90;;;;;;5129592;27;20424;-81
2023/05/18 08:37:55;;;;;;;13.82;2.03;;;13.50;99.90;;;;;;5128764;27;20046;-80
2023/05/18 08:40:21;;;;;;;9.52;2.20;;;13.50;99.90;;;;;;5129187;27;20046;-82
2023/05/18 08:43:01;;;;;;;9.43;2.03;;;13.60;99.90;;;;;;5129936;27;20118;-81
2023/05/18 08:45:35;;;;;;;11.07;1.85;;;13.70;99.90;;;;;;5129063;27;20042;-81
2023/05/18 08:48:02;;;;;;;9.48;1.73;;;13.90;99.90;;;;;;5128364;27;20061;-81
2023/05/18 08:50:30;;;;;;;9.82;2.17;;;14.00;99.90;;;;;;5129108;27;20034;-81
2023/05/18 08:53:01;;;;;;;9.95;1.77;;;14.10;99.90;;;;;;5126871;27;20046;-81
2023/05/18 08:55:28;;;;;;;7.00;1.58;;;14.10;99.90;;;;;;5127577;27;20045;-80
2023/05/18 08:57:56;;;;;;;8.95;2.00;;;14.00;99.90;;;;;;5127849;27;20107;-80
2023/05/18 09:00:23;;;;;;;5.75;1.77;;;13.90;99.90;;;;;;5143822;27;20108;-80
2023/05/18 09:02:49;;;;;;;9.02;1.80;;;13.80;99.90;;;;;;5136861;27;20463;-80
2023/05/18 09:05:16;;;;;;;8.40;1.45;;;13.80;99.90;;;;;;5126657;27;20123;-79
2023/05/18 09:07:43;;;;;;;9.75;1.83;;;13.80;99.90;;;;;;5100458;27;20075;-80
2023/05/18 09:10:10;;;;;;;12.07;1.80;;;13.80;99.90;;;;;;5128912;27;20048;-80
2023/05/18 09:12:38;;;;;;;12.13;2.13;;;13.90;99.90;;;;;;5117759;27;20045;-80
2023/05/18 09:15:04;;;;;;;10.80;1.70;;;14.10;99.90;;;;;;5121806;27;20057;-80
2023/05/18 09:17:30;;;;;;;10.25;1.67;;;14.10;99.90;;;;;;5108478;27;20070;-80
2023/05/18 09:19:56;;;;;;;12.52;2.20;;;14.20;99.90;;;;;;5122856;27;20051;-80
2023/05/18 09:22:21;;;;;;;11.30;1.70;;;14.30;99.90;;;;;;5112193;27;20038;-80
2023/05/18 09:24:48;;;;;;;13.57;2.25;;;14.20;99.90;;;;;;5140287;27;20035;-80
2023/05/18 09:27:13;;;;;;;10.05;1.90;;;14.10;99.90;;;;;;5125054;27;20067;-80
2023/05/18 09:29:54;;;;;;;10.75;2.33;;;14.00;99.90;;;;;;5129513;27;20491;-80
2023/05/18 09:32:20;;;;;;;8.98;2.03;;;14.00;99.90;;;;;;5125614;27;20039;-80
2023/05/18 09:34:47;;;;;;;7.78;1.67;;;14.00;99.90;;;;;;5101465;27;20043;-80
2023/05/18 09:37:18;;;;;;;9.93;2.63;;;14.00;99.90;;;;;;5118352;28;20078;-80
2023/05/18 09:39:45;;;;;;;10.45;2.47;;;14.10;99.90;;;;;;5116329;27;20038;-80
2023/05/18 09:42:11;;;;;;;11.35;2.83;;;14.00;99.90;;;;;;5111955;27;20043;-80
2023/05/18 09:44:37;;;;;;;7.25;1.95;;;14.10;99.90;;;;;;5128787;27;20509;-81
2023/05/18 09:47:08;;;;;;;11.77;2.38;;;14.10;99.90;;;;;;5129322;27;20629;-81
2023/05/18 09:49:34;;;;;;;8.25;2.10;;;14.30;99.90;;;;;;5125187;27;20110;-81
2023/05/18 09:52:00;;;;;;;9.18;2.10;;;14.60;99.90;;;;;;5124557;27;20074;-81
2023/05/18 09:54:26;;;;;;;7.43;1.60;;;14.80;99.90;;;;;;5122666;27;20077;-81
2023/05/18 09:56:52;;;;;;;8.10;2.05;;;14.90;99.90;;;;;;5123961;27;20134;-80
2023/05/18 09:59:17;;;;;;;10.25;2.22;;;15.20;99.90;;;;;;5125181;27;20501;-80
2023/05/18 10:02:00;;;;;;;9.70;2.20;;;15.20;99.90;;;;;;5121871;27;20122;-80
2023/05/18 10:04:41;;;;;;;10.70;2.15;;;15.10;99.90;;;;;;5116100;27;20059;-80
2023/05/18 10:07:10;;;;;;;9.55;2.17;;;15.20;99.90;;;;;;5147884;27;20122;-81
2023/05/18 10:09:36;;;;;;;9.43;1.95;;;15.10;99.90;;;;;;5128282;27;20051;-84
2023/05/18 10:12:02;;;;;;;5.72;1.83;;;15.10;99.90;;;;;;5127039;27;20035;-83
2023/05/18 10:14:35;;;;;;;9.90;2.97;;;15.10;99.90;;;;;;5114309;27;20050;-83
2023/05/18 10:17:03;;;;;;;15.38;2.20;;;15.10;99.90;;;;;;5104138;27;20055;-83
2023/05/18 10:19:33;;;;;;;9.48;2.20;;;15.10;99.90;;;;;;5124042;27;20057;-83
2023/05/18 10:22:00;;;;;;;8.55;1.90;;;15.10;99.90;;;;;;5106972;27;20035;-84
2023/05/18 10:24:27;;;;;;;9.65;1.83;;;15.20;99.90;;;;;;5106875;27;20039;-83
2023/05/18 10:26:57;;;;;;;7.28;1.70;;;15.40;99.90;;;;;;5109872;27;20434;-83
2023/05/18 10:29:23;;;;;;;11.38;1.88;;;15.60;99.90;;;;;;5104335;27;20047;-84
2023/05/18 10:31:51;;;;;;;12.00;2.22;;;15.80;99.90;;;;;;5112350;27;20082;-83
2023/05/18 10:34:19;;;;;;;11.32;1.75;;;15.90;99.90;;;;;;5126885;27;20043;-84
2023/05/18 10:36:45;;;;;;;14.25;1.92;;;16.00;99.90;;;;;;5112077;27;20881;-83
2023/05/18 10:39:11;;;;;;;13.75;2.53;;;16.10;99.90;;;;;;5122000;27;20058;-82
2023/05/18 10:41:38;;;;;;;11.45;2.05;;;16.00;99.90;;;;;;5131552;27;20038;-84
2023/05/18 10:44:05;;;;;;;8.63;1.88;;;15.90;99.90;;;;;;5124684;27;20039;-83
2023/05/18 10:46:32;;;;;;;7.95;1.63;;;15.90;99.90;;;;;;5134431;27;20081;-84
2023/05/18 10:48:59;;;;;;;8.70;2.22;;;15.90;99.90;;;;;;5111307;27;20030;-83
2023/05/18 10:51:28;;;;;;;8.32;1.77;;;15.80;99.90;;;;;;5102826;27;20434;-83
2023/05/18 10:54:02;;;;;;;33.72;2.83;;;15.70;99.90;;;;;;5106413;27;20180;-82
2023/05/18 10:56:27;;;;;;;13.93;2.08;;;15.60;99.90;;;;;;5120865;27;20083;-83
2023/05/18 10:58:54;;;;;;;16.42;2.15;;;15.50;99.90;;;;;;5123051;27;20089;-83
2023/05/18 11:01:21;;;;;;;9.20;2.05;;;15.60;99.90;;;;;;5122206;27;20039;-82
2023/05/18 11:03:48;;;;;;;8.25;1.95;;;15.60;99.90;;;;;;5119711;27;20037;-83
2023/05/18 11:06:22;;;;;;;7.22;2.05;;;15.60;99.90;;;;;;5108547;27;20043;-82
2023/05/18 11:08:49;;;;;;;9.70;2.17;;;15.80;99.90;;;;;;5120683;27;20046;-82
2023/05/18 11:11:16;;;;;;;10.98;2.33;;;15.80;99.90;;;;;;5110609;27;20513;-83
2023/05/18 11:13:47;;;;;;;7.75;1.85;;;16.00;99.90;;;;;;5102642;27;20054;-83
2023/05/18 11:16:14;;;;;;;11.77;2.13;;;16.10;99.90;;;;;;5108601;27;20051;-84
2023/05/18 11:18:42;;;;;;;6.80;1.92;;;16.10;99.90;;;;;;5111427;27;20062;-83
2023/05/18 11:21:23;;;;;;;13.38;2.28;;;16.10;99.90;;;;;;5110773;27;20100;-83
2023/05/18 11:24:24;;;;;;;8.63;2.00;;;16.20;99.90;;;;;;5131023;27;20213;-83
2023/05/18 11:26:50;;;;;;;9.27;2.00;;;16.40;99.90;;;;;;5125539;27;20038;-83
2023/05/18 11:29:32;;;;;;;9.55;2.20;;;16.50;99.90;;;;;;5103980;27;20104;-84
2023/05/18 11:31:58;;;;;;;12.93;1.90;;;16.60;99.90;;;;;;5100169;27;20039;-83
2023/05/18 11:34:33;;;;;;;12.02;2.40;;;16.80;99.90;;;;;;5124749;27;20414;-84
2023/05/18 11:36:59;;;;;;;9.43;2.00;;;17.00;99.90;;;;;;5102157;27;20134;-83
2023/05/18 11:39:25;;;;;;;8.23;2.30;;;17.00;99.90;;;;;;5125249;27;20133;-84
2023/05/18 11:42:06;;;;;;;9.77;2.10;;;17.00;99.90;;;;;;5112419;27;20110;-84
2023/05/18 11:44:32;;;;;;;14.63;2.72;;;17.00;99.90;;;;;;5113315;27;20035;-84
2023/05/18 11:46:57;;;;;;;12.82;1.88;;;16.90;99.90;;;;;;5098554;27;20088;-83
2023/05/18 11:49:35;;;;;;;12.00;2.10;;;16.80;99.90;;;;;;5112192;27;20050;-85
2023/05/18 11:52:04;;;;;;;13.70;2.38;;;16.60;99.90;;;;;;5129498;27;20038;-84
2023/05/18 11:54:52;;;;;;;11.70;2.35;;;16.30;99.60;;;;;;5110442;27;20129;-84
2023/05/18 11:57:22;;;;;;;10.65;2.17;;;16.10;99.80;;;;;;5107789;27;20051;-85
2023/05/18 11:59:54;;;;;;;11.60;2.22;;;16.00;99.90;;;;;;5109403;27;20047;-84
2023/05/18 12:02:22;;;;;;;10.38;2.55;;;15.90;99.80;;;;;;5108682;27;20372;-82
2023/05/18 12:04:52;;;;;;;9.35;1.95;;;16.00;99.80;;;;;;5127945;27;20043;-83
2023/05/18 12:07:19;;;;;;;9.95;1.85;;;16.00;99.80;;;;;;5131101;27;20065;-81
2023/05/18 12:09:46;;;;;;;13.13;2.78;;;16.10;99.90;;;;;;5109704;27;20088;-81
2023/05/18 12:12:16;;;;;;;7.85;1.90;;;16.20;99.90;;;;;;5129222;27;20546;-81
2023/05/18 12:14:43;;;;;;;9.43;2.80;;;16.10;99.90;;;;;;5108960;27;20039;-81
2023/05/18 12:17:10;;;;;;;12.32;2.85;;;16.10;99.90;;;;;;5129010;27;20070;-81
2023/05/18 12:19:40;;;;;;;13.90;2.38;;;16.10;99.90;;;;;;5113336;27;20430;-81
2023/05/18 12:22:08;;;;;;;10.00;2.40;;;16.10;99.90;;;;;;5130077;27;20035;-81
2023/05/18 12:24:33;;;;;;;8.13;2.40;;;16.10;99.90;;;;;;5125889;27;20099;-81
2023/05/18 12:27:03;;;;;;;12.38;2.33;;;16.10;99.90;;;;;;5127725;27;20114;-81
2023/05/18 12:29:29;;;;;;;12.20;2.13;;;16.20;99.90;;;;;;5104385;27;20039;-82
2023/05/18 12:31:55;;;;;;;10.20;2.10;;;16.40;99.90;;;;;;5126986;27;20441;-81
2023/05/18 12:34:21;;;;;;;12.50;2.13;;;16.40;99.90;;;;;;5113184;27;20375;-81
2023/05/18 12:36:52;;;;;;;10.23;2.20;;;16.30;99.90;;;;;;5126086;27;20390;-81
2023/05/18 12:39:18;;;;;;;13.95;2.45;;;16.30;99.90;;;;;;5111797;27;20047;-81
2023/05/18 12:41:44;;;;;;;9.13;2.38;;;16.30;99.90;;;;;;5129743;27;20038;-81
2023/05/18 12:44:10;;;;;;;11.25;2.15;;;16.50;99.90;;;;;;5107033;27;20039;-80
2023/05/18 12:46:35;;;;;;;9.00;2.10;;;16.50;99.90;;;;;;5098343;27;20171;-81